createdAt,value
2022-10-01T00:02:29.270Z,7.90
2022-10-01T00:04:57.651Z,7.90
2022-10-01T00:07:26.065Z,7.90
2022-10-01T00:09:54.215Z,7.90
2022-10-01T00:12:22.171Z,8.00
2022-10-01T00:14:52.060Z,8.00
2022-10-01T00:17:20.037Z,8.00
2022-10-01T00:19:49.374Z,8.00
2022-10-01T00:22:18.987Z,8.00
2022-10-01T00:24:47.200Z,8.00
2022-10-01T00:27:15.294Z,8.00
2022-10-01T00:29:44.753Z,8.00
2022-10-01T00:32:12.858Z,8.00
2022-10-01T00:34:40.800Z,8.00
2022-10-01T00:37:10.604Z,8.00
2022-10-01T00:39:39.078Z,8.00
2022-10-01T00:42:18.742Z,8.00
2022-10-01T00:44:47.123Z,8.00
2022-10-01T00:47:24.646Z,8.10
2022-10-01T00:49:59.425Z,8.10
2022-10-01T00:52:32.773Z,8.20
2022-10-01T00:55:06.275Z,8.20
2022-10-01T00:57:35.482Z,8.20
2022-10-01T01:00:08.889Z,8.20
2022-10-01T01:02:37.095Z,8.20
2022-10-01T01:05:08.826Z,8.20
2022-10-01T01:07:39.304Z,8.30
2022-10-01T01:10:09.343Z,8.30
2022-10-01T01:12:51.755Z,8.30
2022-10-01T01:15:26.128Z,8.30
2022-10-01T01:17:57.883Z,8.30
2022-10-01T01:21:08.456Z,8.40
2022-10-01T01:24:01.864Z,8.40
2022-10-01T01:26:37.164Z,8.40
2022-10-01T01:29:11.820Z,8.40
2022-10-01T01:31:42.793Z,8.40
2022-10-01T01:34:14.162Z,8.40
2022-10-01T01:36:46.358Z,8.50
2022-10-01T01:39:18.043Z,8.50
2022-10-01T01:41:50.241Z,8.50
2022-10-01T01:44:25.175Z,8.60
2022-10-01T01:46:57.477Z,8.60
2022-10-01T01:49:25.835Z,8.60
2022-10-01T01:51:59.527Z,8.60
2022-10-01T01:54:30.436Z,8.60
2022-10-01T01:56:59.615Z,8.60
2022-10-01T01:59:29.440Z,8.60
2022-10-01T02:01:58.900Z,8.60
2022-10-01T02:04:30.676Z,8.60
2022-10-01T02:07:35.200Z,8.70
2022-10-01T02:10:15.042Z,8.60
2022-10-01T02:12:54.353Z,8.60
2022-10-01T02:15:28.998Z,8.60
2022-10-01T02:18:04.930Z,8.60
2022-10-01T02:20:39.663Z,8.60
2022-10-01T02:23:11.012Z,8.60
2022-10-01T02:25:47.411Z,8.60
2022-10-01T02:28:19.071Z,8.50
2022-10-01T02:30:49.992Z,8.50
2022-10-01T02:33:22.725Z,8.40
2022-10-01T02:35:52.170Z,8.40
2022-10-01T02:38:23.101Z,8.30
2022-10-01T02:40:54.753Z,8.30
2022-10-01T02:43:29.680Z,8.20
2022-10-01T02:46:04.647Z,8.20
2022-10-01T02:48:32.755Z,8.10
2022-10-01T02:51:06.593Z,8.10
2022-10-01T02:53:41.486Z,8.10
2022-10-01T02:56:11.336Z,8.00
2022-10-01T02:58:38.510Z,8.00
2022-10-01T03:01:08.263Z,7.90
2022-10-01T03:03:36.521Z,8.00
2022-10-01T03:06:04.616Z,8.00
2022-10-01T03:08:32.676Z,8.00
2022-10-01T03:11:00.959Z,8.00
2022-10-01T03:13:29.124Z,8.10
2022-10-01T03:15:57.216Z,8.10
2022-10-01T03:18:26.614Z,8.10
2022-10-01T03:20:54.710Z,8.20
2022-10-01T03:23:22.696Z,8.20
2022-10-01T03:25:50.754Z,8.30
2022-10-01T03:28:22.335Z,8.30
2022-10-01T03:30:50.447Z,8.30
2022-10-01T03:33:18.404Z,8.30
2022-10-01T03:35:47.737Z,8.40
2022-10-01T03:38:15.726Z,8.40
2022-10-01T03:40:43.867Z,8.40
2022-10-01T03:43:12.214Z,8.40
2022-10-01T03:45:40.449Z,8.40
2022-10-01T03:48:08.504Z,8.50
2022-10-01T03:50:36.663Z,8.50
2022-10-01T03:53:06.768Z,8.50
2022-10-01T03:55:34.814Z,8.50
2022-10-01T03:58:02.802Z,8.40
2022-10-01T04:00:30.786Z,8.40
2022-10-01T04:02:58.835Z,8.30
2022-10-01T04:05:26.897Z,8.20
2022-10-01T04:07:54.869Z,8.20
2022-10-01T04:10:24.160Z,8.20
2022-10-01T04:12:52.123Z,8.10
2022-10-01T04:15:20.148Z,8.10
2022-10-01T04:17:48.128Z,8.10
2022-10-01T04:20:16.234Z,8.00
2022-10-01T04:22:44.569Z,8.00
2022-10-01T04:25:13.934Z,8.00
2022-10-01T04:27:55.219Z,7.90
2022-10-01T04:30:23.572Z,8.00
2022-10-01T04:32:51.546Z,8.00
2022-10-01T04:35:19.669Z,8.00
2022-10-01T04:37:47.771Z,8.10
2022-10-01T04:40:15.803Z,8.10
2022-10-01T04:42:45.275Z,8.20
2022-10-01T04:45:13.491Z,8.20
2022-10-01T04:47:49.363Z,8.20
2022-10-01T04:50:18.143Z,8.30
2022-10-01T04:52:51.260Z,8.30
2022-10-01T04:55:20.667Z,8.30
2022-10-01T04:57:50.541Z,8.30
2022-10-01T05:00:20.616Z,8.30
2022-10-01T05:02:50.111Z,8.30
2022-10-01T05:05:20.111Z,8.30
2022-10-01T05:07:48.665Z,8.30
2022-10-01T05:10:19.674Z,8.30
2022-10-01T05:12:51.607Z,8.20
2022-10-01T05:15:20.128Z,8.20
2022-10-01T05:17:48.218Z,8.20
2022-10-01T05:20:18.851Z,8.10
2022-10-01T05:22:47.539Z,8.10
2022-10-01T05:25:16.091Z,8.10
2022-10-01T05:27:44.255Z,8.10
2022-10-01T05:30:18.628Z,8.10
2022-10-01T05:32:55.542Z,8.00
2022-10-01T05:35:23.614Z,8.00
2022-10-01T05:37:54.651Z,7.90
2022-10-01T05:40:24.438Z,7.90
2022-10-01T05:42:52.410Z,7.90
2022-10-01T05:45:23.013Z,7.90
2022-10-01T05:47:58.544Z,7.90
2022-10-01T05:50:27.416Z,7.90
2022-10-01T05:52:55.898Z,7.90
2022-10-01T05:55:24.379Z,8.00
2022-10-01T05:57:56.654Z,8.00
2022-10-01T06:00:29.074Z,8.10
2022-10-01T06:02:58.588Z,8.20
2022-10-01T06:05:27.407Z,8.20
2022-10-01T06:07:55.682Z,8.30
2022-10-01T06:10:24.565Z,8.40
2022-10-01T06:12:53.243Z,8.50
2022-10-01T06:15:21.305Z,8.60
2022-10-01T06:17:50.809Z,8.70
2022-10-01T06:20:19.141Z,8.70
2022-10-01T06:22:54.894Z,8.80
2022-10-01T06:25:23.537Z,9.00
2022-10-01T06:27:57.867Z,9.00
2022-10-01T06:30:27.388Z,9.20
2022-10-01T06:33:02.719Z,9.30
2022-10-01T06:35:30.849Z,9.40
2022-10-01T06:37:58.904Z,9.50
2022-10-01T06:40:27.190Z,9.50
2022-10-01T06:42:58.382Z,9.70
2022-10-01T06:45:27.139Z,9.80
2022-10-01T06:47:57.662Z,9.90
2022-10-01T06:50:26.887Z,9.90
2022-10-01T06:52:54.113Z,10.00
2022-10-01T06:55:24.778Z,10.10
2022-10-01T06:57:56.464Z,10.20
2022-10-01T07:00:25.326Z,10.30
2022-10-01T07:02:53.886Z,10.40
2022-10-01T07:05:23.669Z,10.50
2022-10-01T07:07:52.226Z,10.60
2022-10-01T07:10:21.325Z,10.60
2022-10-01T07:12:49.987Z,10.70
2022-10-01T07:15:19.862Z,10.80
2022-10-01T07:17:49.824Z,10.90
2022-10-01T07:20:19.184Z,10.90
2022-10-01T07:22:50.896Z,11.00
2022-10-01T07:25:19.203Z,11.10
2022-10-01T07:27:47.250Z,11.10
2022-10-01T07:30:15.479Z,11.20
2022-10-01T07:32:45.844Z,11.30
2022-10-01T07:35:14.428Z,11.40
2022-10-01T07:37:42.407Z,11.50
2022-10-01T07:40:12.153Z,11.60
2022-10-01T07:42:43.061Z,11.80
2022-10-01T07:45:12.169Z,11.90
2022-10-01T07:47:40.136Z,12.10
2022-10-01T07:50:09.107Z,12.20
2022-10-01T07:52:37.062Z,12.30
2022-10-01T07:55:06.089Z,12.40
2022-10-01T07:57:35.664Z,12.50
2022-10-01T08:00:03.823Z,12.60
2022-10-01T08:02:40.188Z,12.70
2022-10-01T08:05:18.768Z,12.70
2022-10-01T08:07:47.559Z,12.80
2022-10-01T08:10:16.094Z,12.90
2022-10-01T08:12:46.060Z,13.00
2022-10-01T08:15:16.736Z,13.10
2022-10-01T08:17:45.566Z,13.20
2022-10-01T08:20:14.902Z,13.20
2022-10-01T08:22:43.023Z,13.30
2022-10-01T08:25:11.234Z,13.40
2022-10-01T08:27:39.316Z,13.50
2022-10-01T08:30:10.024Z,13.50
2022-10-01T08:32:38.158Z,13.60
2022-10-01T08:35:07.067Z,13.70
2022-10-01T08:37:35.058Z,13.70
2022-10-01T08:40:03.307Z,13.80
2022-10-01T08:42:44.565Z,13.80
2022-10-01T08:45:18.561Z,13.90
2022-10-01T08:47:53.121Z,13.90
2022-10-01T08:50:31.161Z,14.00
2022-10-01T08:53:03.593Z,14.10
2022-10-01T08:55:36.587Z,14.10
2022-10-01T08:58:06.584Z,14.20
2022-10-01T09:00:42.461Z,14.20
2022-10-01T09:03:14.466Z,14.30
2022-10-01T09:05:56.215Z,14.30
2022-10-01T09:08:44.595Z,14.40
2022-10-01T09:11:24.854Z,14.50
2022-10-01T09:14:05.713Z,14.60
2022-10-01T09:16:42.168Z,14.80
2022-10-01T09:19:27.476Z,14.90
2022-10-01T09:21:58.395Z,15.00
2022-10-01T09:24:42.121Z,15.20
2022-10-01T09:27:15.561Z,15.30
2022-10-01T09:29:49.175Z,15.30
2022-10-01T09:32:21.930Z,15.30
2022-10-01T09:34:51.140Z,15.30
2022-10-01T09:37:27.227Z,15.30
2022-10-01T09:40:06.530Z,15.40
2022-10-01T09:42:34.608Z,15.30
2022-10-01T09:45:02.727Z,15.30
2022-10-01T09:47:34.478Z,15.30
2022-10-01T09:50:06.368Z,15.30
2022-10-01T09:52:38.146Z,15.20
2022-10-01T09:55:16.962Z,15.10
2022-10-01T09:57:51.489Z,15.10
2022-10-01T10:00:21.905Z,15.10
2022-10-01T10:02:53.963Z,15.00
2022-10-01T10:05:23.955Z,15.00
2022-10-01T10:07:54.593Z,15.00
2022-10-01T10:10:27.009Z,15.00
2022-10-01T10:13:01.909Z,15.00
2022-10-01T10:15:32.613Z,14.90
2022-10-01T10:18:10.154Z,14.90
2022-10-01T10:20:41.202Z,14.90
2022-10-01T10:23:15.086Z,14.80
2022-10-01T10:25:43.530Z,14.80
2022-10-01T10:28:20.450Z,14.80
2022-10-01T10:30:49.286Z,14.80
2022-10-01T10:33:21.908Z,14.80
2022-10-01T10:35:59.129Z,14.90
2022-10-01T10:38:31.186Z,14.90
2022-10-01T10:40:59.501Z,15.00
2022-10-01T10:43:34.149Z,15.10
2022-10-01T10:46:03.664Z,15.10
2022-10-01T10:48:36.771Z,15.10
2022-10-01T10:51:07.168Z,15.10
2022-10-01T10:53:43.858Z,15.10
2022-10-01T10:56:20.077Z,15.10
2022-10-01T10:58:48.994Z,15.00
2022-10-01T11:01:20.194Z,15.00
2022-10-01T11:03:53.228Z,14.90
2022-10-01T11:06:21.890Z,14.80
2022-10-01T11:08:58.763Z,14.70
2022-10-01T11:11:43.863Z,14.60
2022-10-01T11:14:27.991Z,14.50
2022-10-01T11:17:12.947Z,14.30
2022-10-01T11:19:57.525Z,14.10
2022-10-01T11:22:43.705Z,13.90
2022-10-01T11:25:31.683Z,13.80
2022-10-01T11:28:10.480Z,13.80
2022-10-01T11:30:44.791Z,13.70
2022-10-01T11:33:23.326Z,13.50
2022-10-01T11:35:59.865Z,13.50
2022-10-01T11:38:45.633Z,13.30
2022-10-01T11:41:25.773Z,13.10
2022-10-01T11:44:00.909Z,12.80
2022-10-01T11:46:39.383Z,12.60
2022-10-01T11:49:26.747Z,12.60
2022-10-01T11:52:06.018Z,12.40
2022-10-01T11:54:37.214Z,12.30
2022-10-01T11:57:23.566Z,12.30
2022-10-01T11:59:56.229Z,12.20
2022-10-01T12:02:31.482Z,12.20
2022-10-01T12:05:02.440Z,12.10
2022-10-01T12:07:39.430Z,12.20
2022-10-01T12:10:19.105Z,12.20
2022-10-01T12:12:52.343Z,12.20
2022-10-01T12:15:26.784Z,12.20
2022-10-01T12:18:00.060Z,12.20
2022-10-01T12:20:34.020Z,12.20
2022-10-01T12:23:06.342Z,12.30
2022-10-01T12:25:42.616Z,12.30
2022-10-01T12:28:16.724Z,12.50
2022-10-01T12:30:51.688Z,12.40
2022-10-01T12:34:03.468Z,12.40
2022-10-01T12:36:42.877Z,12.20
2022-10-01T12:39:29.646Z,12.10
2022-10-01T12:42:10.817Z,12.00
2022-10-01T12:44:53.378Z,11.80
2022-10-01T12:47:36.453Z,11.70
2022-10-01T12:50:16.610Z,11.60
2022-10-01T12:52:54.331Z,11.60
2022-10-01T12:55:40.858Z,11.60
2022-10-01T12:58:19.305Z,11.60
2022-10-01T13:00:58.473Z,11.60
2022-10-01T13:03:54.440Z,11.60
2022-10-01T13:06:32.535Z,11.60
2022-10-01T13:09:09.677Z,11.60
2022-10-01T13:11:53.461Z,11.60
2022-10-01T13:14:22.516Z,11.60
2022-10-01T13:16:59.871Z,11.60
2022-10-01T13:19:35.663Z,11.70
2022-10-01T13:22:17.650Z,11.70
2022-10-01T13:24:52.149Z,11.80
2022-10-01T13:27:28.389Z,11.80
2022-10-01T13:30:01.078Z,11.80
2022-10-01T13:32:33.155Z,11.70
2022-10-01T13:35:03.731Z,11.90
2022-10-01T13:37:38.055Z,11.80
2022-10-01T13:40:21.944Z,11.90
2022-10-01T13:42:53.318Z,11.90
2022-10-01T13:45:29.159Z,11.90
2022-10-01T13:48:17.335Z,12.00
2022-10-01T13:51:05.125Z,12.00
2022-10-01T13:53:37.301Z,12.00
2022-10-01T13:56:06.448Z,12.00
2022-10-01T13:58:39.679Z,12.00
2022-10-01T14:01:24.570Z,12.10
2022-10-01T14:03:59.579Z,12.10
2022-10-01T14:06:31.964Z,12.20
2022-10-01T14:09:06.671Z,12.20
2022-10-01T14:11:55.670Z,12.30
2022-10-01T14:14:50.557Z,12.30
2022-10-01T14:17:22.620Z,12.30
2022-10-01T14:19:51.895Z,12.50
2022-10-01T14:22:31.339Z,12.50
2022-10-01T14:25:17.012Z,12.50
2022-10-01T14:27:49.119Z,12.60
2022-10-01T14:30:21.587Z,12.60
2022-10-01T14:33:07.633Z,12.70
2022-10-01T14:35:39.348Z,12.70
2022-10-01T14:38:15.754Z,12.70
2022-10-01T14:40:47.322Z,12.80
2022-10-01T14:43:18.737Z,12.90
2022-10-01T14:45:58.090Z,13.00
2022-10-01T14:48:27.972Z,13.00
2022-10-01T14:50:58.102Z,13.00
2022-10-01T14:53:29.830Z,13.00
2022-10-01T14:56:01.535Z,13.00
2022-10-01T14:58:32.929Z,13.00
2022-10-01T15:01:02.681Z,13.00
2022-10-01T15:03:38.441Z,13.00
2022-10-01T15:06:13.459Z,13.00
2022-10-01T15:08:43.135Z,12.90
2022-10-01T15:11:15.310Z,12.90
2022-10-01T15:13:45.490Z,12.80
2022-10-01T15:16:17.708Z,12.90
2022-10-01T15:18:48.828Z,12.90
2022-10-01T15:21:21.915Z,12.80
2022-10-01T15:23:50.707Z,12.80
2022-10-01T15:26:23.227Z,12.80
2022-10-01T15:28:51.213Z,12.70
2022-10-01T15:31:23.030Z,12.80
2022-10-01T15:33:52.177Z,12.80
2022-10-01T15:36:20.398Z,12.80
2022-10-01T15:38:50.569Z,12.80
2022-10-01T15:41:31.519Z,12.80
2022-10-01T15:44:02.995Z,12.70
2022-10-01T15:46:35.134Z,12.80
2022-10-01T15:49:17.632Z,12.90
2022-10-01T15:52:11.124Z,12.80
2022-10-01T15:54:40.441Z,12.80
2022-10-01T15:57:09.206Z,12.70
2022-10-01T15:59:38.062Z,12.80
2022-10-01T16:02:15.709Z,12.70
2022-10-01T16:04:43.933Z,12.70
2022-10-01T16:07:20.547Z,12.70
2022-10-01T16:09:58.136Z,12.70
2022-10-01T16:12:28.605Z,12.70
2022-10-01T16:15:00.738Z,12.70
2022-10-01T16:17:32.858Z,12.60
2022-10-01T16:20:03.698Z,12.70
2022-10-01T16:22:33.717Z,12.60
2022-10-01T16:25:03.921Z,12.80
2022-10-01T16:27:36.478Z,12.70
2022-10-01T16:30:12.281Z,12.60
2022-10-01T16:32:42.050Z,12.60
2022-10-01T16:35:22.004Z,12.70
2022-10-01T16:37:52.143Z,12.70
2022-10-01T16:40:22.203Z,12.70
2022-10-01T16:42:51.616Z,12.70
2022-10-01T16:45:24.341Z,12.70
2022-10-01T16:47:54.457Z,12.70
2022-10-01T16:50:23.653Z,12.70
2022-10-01T16:52:55.564Z,12.60
2022-10-01T16:55:26.104Z,12.70
2022-10-01T16:57:55.696Z,12.70
2022-10-01T17:00:26.040Z,12.70
2022-10-01T17:02:57.805Z,12.70
2022-10-01T17:05:27.761Z,12.70
2022-10-01T17:07:57.777Z,12.70
2022-10-01T17:10:25.869Z,12.70
2022-10-01T17:13:19.379Z,12.70
2022-10-01T17:15:51.758Z,12.60
2022-10-01T17:18:23.262Z,12.70
2022-10-01T17:20:51.343Z,12.70
2022-10-01T17:23:22.200Z,12.70
2022-10-01T17:25:50.815Z,12.70
2022-10-01T17:28:20.993Z,12.70
2022-10-01T17:30:49.674Z,12.70
2022-10-01T17:33:20.161Z,12.70
2022-10-01T17:35:54.489Z,12.80
2022-10-01T17:38:23.330Z,12.80
2022-10-01T17:40:56.384Z,12.80
2022-10-01T17:43:25.176Z,12.80
2022-10-01T17:45:57.723Z,12.70
2022-10-01T17:48:26.316Z,12.80
2022-10-01T17:51:04.863Z,12.80
2022-10-01T17:53:42.334Z,12.90
2022-10-01T17:56:13.484Z,12.90
2022-10-01T17:58:44.958Z,12.80
2022-10-01T18:01:16.712Z,12.80
2022-10-01T18:03:44.793Z,12.80
2022-10-01T18:06:15.426Z,12.80
2022-10-01T18:08:55.143Z,12.80
2022-10-01T18:11:28.221Z,12.80
2022-10-01T18:13:56.617Z,12.90
2022-10-01T18:16:25.584Z,12.80
2022-10-01T18:19:52.484Z,12.80
2022-10-01T18:21:48.277Z,12.80
2022-10-01T18:24:17.433Z,12.90
2022-10-01T18:26:46.601Z,12.80
2022-10-01T18:29:19.278Z,12.80
2022-10-01T18:31:47.707Z,12.90
2022-10-01T18:34:21.706Z,12.80
2022-10-01T18:36:57.722Z,12.80
2022-10-01T18:39:34.419Z,12.80
2022-10-01T18:42:04.684Z,12.90
2022-10-01T18:44:32.984Z,12.80
2022-10-01T18:47:12.785Z,12.90
2022-10-01T18:49:56.089Z,12.80
2022-10-01T18:52:35.846Z,12.90
2022-10-01T18:55:40.275Z,12.90
2022-10-01T18:58:39.477Z,13.00
2022-10-01T19:01:17.812Z,12.90
2022-10-01T19:04:17.181Z,13.00
2022-10-01T19:06:54.877Z,12.90
2022-10-01T19:09:43.653Z,13.00
2022-10-01T19:12:26.936Z,12.80
2022-10-01T19:15:01.705Z,13.00
2022-10-01T19:17:47.756Z,13.00
2022-10-01T19:20:24.528Z,13.00
2022-10-01T19:23:05.436Z,13.00
2022-10-01T19:25:38.609Z,12.90
2022-10-01T19:28:20.145Z,13.00
2022-10-01T19:31:04.271Z,13.10
2022-10-01T19:33:36.222Z,13.00
2022-10-01T19:36:05.245Z,13.10
2022-10-01T19:38:37.831Z,13.10
2022-10-01T19:41:14.801Z,13.10
2022-10-01T19:43:48.924Z,13.20
2022-10-01T19:46:23.865Z,13.20
2022-10-01T19:48:57.127Z,13.20
2022-10-01T19:51:31.178Z,13.10
2022-10-01T19:54:02.138Z,13.00
2022-10-01T19:56:33.969Z,13.10
2022-10-01T19:59:03.128Z,13.00
2022-10-01T20:01:37.756Z,13.10
2022-10-01T20:04:14.506Z,13.00
2022-10-01T20:06:45.471Z,13.10
2022-10-01T20:09:23.422Z,13.00
2022-10-01T20:12:00.451Z,13.00
2022-10-01T20:15:02.494Z,13.00
2022-10-01T20:17:37.582Z,12.90
2022-10-01T20:20:17.609Z,12.90
2022-10-01T20:22:55.735Z,12.90
2022-10-01T20:25:32.090Z,12.90
2022-10-01T20:28:09.771Z,13.00
2022-10-01T20:30:44.829Z,13.00
2022-10-01T20:33:23.833Z,13.00
2022-10-01T20:35:59.316Z,12.80
2022-10-01T20:38:35.210Z,12.90
2022-10-01T20:41:10.518Z,12.90
2022-10-01T20:43:44.492Z,12.80
2022-10-01T20:46:16.609Z,12.90
2022-10-01T20:48:47.290Z,12.80
2022-10-01T20:51:18.699Z,12.70
2022-10-01T20:53:52.080Z,12.70
2022-10-01T20:56:24.149Z,12.70
2022-10-01T20:58:57.351Z,12.70
2022-10-01T21:01:30.244Z,12.70
2022-10-01T21:04:03.828Z,12.80
2022-10-01T21:06:38.526Z,12.70
2022-10-01T21:09:16.117Z,12.60
2022-10-01T21:11:50.895Z,12.60
2022-10-01T21:14:25.892Z,12.80
2022-10-01T21:17:21.120Z,12.80
2022-10-01T21:20:11.477Z,12.70
2022-10-01T21:22:51.920Z,12.70
2022-10-01T21:25:29.249Z,12.80
2022-10-01T21:28:12.161Z,12.80
2022-10-01T21:31:00.256Z,12.80
2022-10-01T21:33:33.365Z,12.80
2022-10-01T21:36:07.234Z,12.80
2022-10-01T21:38:42.618Z,12.80
2022-10-01T21:41:29.082Z,12.80
2022-10-01T21:44:18.572Z,12.80
2022-10-01T21:46:56.432Z,12.80
2022-10-01T21:49:35.102Z,12.70
2022-10-01T21:52:14.915Z,12.70
2022-10-01T21:55:02.648Z,12.70
2022-10-01T21:57:48.258Z,12.70
2022-10-01T22:00:21.163Z,12.70
2022-10-01T22:03:04.773Z,12.60
2022-10-01T22:05:38.334Z,12.60
2022-10-01T22:08:19.192Z,12.60
2022-10-01T22:10:49.524Z,12.60
2022-10-01T22:13:21.721Z,12.60
2022-10-01T22:15:53.064Z,12.50
2022-10-01T22:18:35.887Z,12.60
2022-10-01T22:21:10.115Z,12.40
2022-10-01T22:23:40.815Z,12.30
2022-10-01T22:26:14.256Z,12.30
2022-10-01T22:28:45.035Z,12.20
2022-10-01T22:31:19.378Z,12.10
2022-10-01T22:33:54.326Z,11.70
2022-10-01T22:36:28.158Z,11.50
2022-10-01T22:39:00.502Z,11.30
2022-10-01T22:41:33.537Z,11.20
2022-10-01T22:44:07.550Z,11.10
2022-10-01T22:46:55.593Z,11.00
2022-10-01T22:49:37.997Z,11.00
2022-10-01T22:52:18.882Z,11.20
2022-10-01T22:54:57.237Z,11.00
2022-10-01T22:57:38.177Z,11.10
2022-10-01T23:00:09.554Z,11.10
2022-10-01T23:02:40.135Z,11.00
2022-10-01T23:05:22.789Z,11.00
2022-10-01T23:08:02.086Z,11.10
2022-10-01T23:10:39.277Z,11.00
2022-10-01T23:13:17.348Z,11.00
2022-10-01T23:15:53.253Z,11.00
2022-10-01T23:18:32.439Z,10.90
2022-10-01T23:21:15.368Z,10.80
2022-10-01T23:23:57.863Z,10.70
2022-10-01T23:26:36.086Z,10.70
2022-10-01T23:29:20.488Z,10.80
2022-10-01T23:31:59.366Z,10.80
2022-10-01T23:34:38.732Z,10.70
2022-10-01T23:37:23.092Z,10.70
2022-10-01T23:39:55.185Z,10.70
2022-10-01T23:42:34.774Z,10.80
2022-10-01T23:45:15.170Z,10.80
2022-10-01T23:47:49.354Z,10.80
2022-10-01T23:50:22.815Z,10.80
2022-10-01T23:53:04.074Z,10.80
2022-10-01T23:56:00.087Z,10.80
2022-10-01T23:58:30.599Z,10.80
